sensor_id;sensor_type;location;lat;lon;timestamp;pressure;altitude;pressure_sealevel;temperature;humidity
10978;BME280;5542;48.272;10.794;2024-02-26T00:00:52;93949.22;;;4.45;73.75
10978;BME280;5542;48.272;10.794;2024-02-26T00:03:19;93942.09;;;4.41;73.51
10978;BME280;5542;48.272;10.794;2024-02-26T00:05:47;93943.50;;;4.31;73.83
10978;BME280;5542;48.272;10.794;2024-02-26T00:08:13;93939.22;;;4.25;74.33
10978;BME280;5542;48.272;10.794;2024-02-26T00:10:40;93940.78;;;4.26;74.13
10978;BME280;5542;48.272;10.794;2024-02-26T00:13:08;93929.94;;;4.29;74.27
10978;BME280;5542;48.272;10.794;2024-02-26T00:15:34;93929.13;;;4.00;75.10
10978;BME280;5542;48.272;10.794;2024-02-26T00:18:01;93930.75;;;3.90;75.91
10978;BME280;5542;48.272;10.794;2024-02-26T00:20:27;93932.22;;;3.85;76.07
10978;BME280;5542;48.272;10.794;2024-02-26T00:22:56;93934.63;;;3.75;76.59
10978;BME280;5542;48.272;10.794;2024-02-26T00:25:22;93944.22;;;3.75;76.67
10978;BME280;5542;48.272;10.794;2024-02-26T00:27:49;93933.13;;;3.79;76.73
10978;BME280;5542;48.272;10.794;2024-02-26T00:30:15;93936.53;;;3.80;76.79
10978;BME280;5542;48.272;10.794;2024-02-26T00:32:42;93929.97;;;3.77;76.82
10978;BME280;5542;48.272;10.794;2024-02-26T00:35:09;93931.56;;;3.78;77.17
10978;BME280;5542;48.272;10.794;2024-02-26T00:37:36;93939.69;;;3.82;77.00
10978;BME280;5542;48.272;10.794;2024-02-26T00:40:05;93936.31;;;3.81;76.91
10978;BME280;5542;48.272;10.794;2024-02-26T00:42:34;93929.63;;;3.85;77.06
10978;BME280;5542;48.272;10.794;2024-02-26T00:45:00;93943.75;;;3.90;76.99
10978;BME280;5542;48.272;10.794;2024-02-26T00:47:28;93930.28;;;3.93;77.01
10978;BME280;5542;48.272;10.794;2024-02-26T00:49:54;93927.34;;;3.89;76.81
10978;BME280;5542;48.272;10.794;2024-02-26T00:52:21;93930.19;;;3.88;76.72
10978;BME280;5542;48.272;10.794;2024-02-26T00:54:48;93926.53;;;3.89;76.68
10978;BME280;5542;48.272;10.794;2024-02-26T00:57:16;93926.00;;;3.87;76.84
10978;BME280;5542;48.272;10.794;2024-02-26T00:59:42;93927.03;;;3.85;77.14
10978;BME280;5542;48.272;10.794;2024-02-26T01:02:09;93915.59;;;3.87;77.23
10978;BME280;5542;48.272;10.794;2024-02-26T01:04:35;93912.22;;;3.86;77.40
10978;BME280;5542;48.272;10.794;2024-02-26T01:07:02;93916.94;;;3.89;77.43
10978;BME280;5542;48.272;10.794;2024-02-26T01:09:29;93918.28;;;3.92;77.53
10978;BME280;5542;48.272;10.794;2024-02-26T01:11:56;93913.34;;;3.90;77.48
10978;BME280;5542;48.272;10.794;2024-02-26T01:14:24;93908.69;;;3.92;77.58
10978;BME280;5542;48.272;10.794;2024-02-26T01:16:50;93914.66;;;3.93;77.50
10978;BME280;5542;48.272;10.794;2024-02-26T01:19:17;93915.25;;;3.95;77.09
10978;BME280;5542;48.272;10.794;2024-02-26T01:21:44;93917.28;;;3.93;77.23
10978;BME280;5542;48.272;10.794;2024-02-26T01:24:10;93922.25;;;3.94;77.21
10978;BME280;5542;48.272;10.794;2024-02-26T01:26:37;93923.06;;;3.95;77.34
10978;BME280;5542;48.272;10.794;2024-02-26T01:29:04;93921.44;;;3.94;77.36
10978;BME280;5542;48.272;10.794;2024-02-26T01:31:32;93919.41;;;3.96;77.10
10978;BME280;5542;48.272;10.794;2024-02-26T01:33:58;93912.66;;;3.95;77.13
10978;BME280;5542;48.272;10.794;2024-02-26T01:36:25;93913.09;;;3.92;77.18
10978;BME280;5542;48.272;10.794;2024-02-26T01:38:52;93915.16;;;3.90;76.97
10978;BME280;5542;48.272;10.794;2024-02-26T01:41:18;93910.94;;;3.89;77.05
10978;BME280;5542;48.272;10.794;2024-02-26T01:43:45;93907.09;;;3.91;77.48
10978;BME280;5542;48.272;10.794;2024-02-26T01:46:14;93900.09;;;3.92;77.56
10978;BME280;5542;48.272;10.794;2024-02-26T01:48:42;93896.81;;;3.84;77.66
10978;BME280;5542;48.272;10.794;2024-02-26T01:51:10;93898.88;;;3.82;77.64
10978;BME280;5542;48.272;10.794;2024-02-26T01:53:37;93898.00;;;3.77;77.81
10978;BME280;5542;48.272;10.794;2024-02-26T01:56:04;93895.50;;;3.70;78.20
10978;BME280;5542;48.272;10.794;2024-02-26T01:58:32;93892.59;;;3.67;78.40
10978;BME280;5542;48.272;10.794;2024-02-26T02:01:01;93897.09;;;3.71;78.28
10978;BME280;5542;48.272;10.794;2024-02-26T02:03:28;93892.00;;;3.65;78.47
10978;BME280;5542;48.272;10.794;2024-02-26T02:05:57;93892.25;;;3.63;78.54
10978;BME280;5542;48.272;10.794;2024-02-26T02:08:23;93888.28;;;3.60;78.88
10978;BME280;5542;48.272;10.794;2024-02-26T02:10:50;93890.09;;;3.60;79.17
10978;BME280;5542;48.272;10.794;2024-02-26T02:13:17;93895.78;;;3.57;79.29
10978;BME280;5542;48.272;10.794;2024-02-26T02:15:44;93897.91;;;3.60;79.32
10978;BME280;5542;48.272;10.794;2024-02-26T02:18:10;93904.69;;;3.61;79.79
10978;BME280;5542;48.272;10.794;2024-02-26T02:20:38;93885.69;;;3.60;79.37
10978;BME280;5542;48.272;10.794;2024-02-26T02:23:05;93898.94;;;3.59;79.42
10978;BME280;5542;48.272;10.794;2024-02-26T02:25:32;93890.19;;;3.65;79.17
10978;BME280;5542;48.272;10.794;2024-02-26T02:27:58;93889.31;;;3.71;78.83
10978;BME280;5542;48.272;10.794;2024-02-26T02:30:28;93877.09;;;3.60;78.94
10978;BME280;5542;48.272;10.794;2024-02-26T02:32:57;93882.09;;;3.50;79.06
10978;BME280;5542;48.272;10.794;2024-02-26T02:35:23;93887.19;;;3.45;79.62
10978;BME280;5542;48.272;10.794;2024-02-26T02:37:52;93879.06;;;3.41;79.97
10978;BME280;5542;48.272;10.794;2024-02-26T02:40:18;93883.72;;;3.27;80.42
10978;BME280;5542;48.272;10.794;2024-02-26T02:42:45;93881.44;;;3.31;80.55
10978;BME280;5542;48.272;10.794;2024-02-26T02:45:12;93884.28;;;3.29;80.45
10978;BME280;5542;48.272;10.794;2024-02-26T02:47:38;93884.97;;;3.25;80.79
10978;BME280;5542;48.272;10.794;2024-02-26T02:50:06;93881.59;;;3.24;81.02
10978;BME280;5542;48.272;10.794;2024-02-26T02:52:33;93879.66;;;3.31;81.24
10978;BME280;5542;48.272;10.794;2024-02-26T02:55:01;93872.53;;;3.39;81.11
10978;BME280;5542;48.272;10.794;2024-02-26T02:57:28;93874.53;;;3.37;81.22
10978;BME280;5542;48.272;10.794;2024-02-26T02:59:55;93877.25;;;3.42;81.09
10978;BME280;5542;48.272;10.794;2024-02-26T03:02:21;93879.97;;;3.47;81.08
10978;BME280;5542;48.272;10.794;2024-02-26T03:04:50;93877.47;;;3.52;80.92
10978;BME280;5542;48.272;10.794;2024-02-26T03:07:17;93879.06;;;3.53;80.74
10978;BME280;5542;48.272;10.794;2024-02-26T03:09:43;93882.19;;;3.55;80.64
10978;BME280;5542;48.272;10.794;2024-02-26T03:12:11;93883.91;;;3.61;80.48
10978;BME280;5542;48.272;10.794;2024-02-26T03:14:38;93885.00;;;3.65;80.38
10978;BME280;5542;48.272;10.794;2024-02-26T03:17:05;93882.50;;;3.70;80.24
10978;BME280;5542;48.272;10.794;2024-02-26T03:19:32;93880.94;;;3.69;79.81
10978;BME280;5542;48.272;10.794;2024-02-26T03:21:58;93883.78;;;3.68;79.65
10978;BME280;5542;48.272;10.794;2024-02-26T03:24:25;93878.31;;;3.69;79.56
10978;BME280;5542;48.272;10.794;2024-02-26T03:26:51;93880.94;;;3.69;79.62
10978;BME280;5542;48.272;10.794;2024-02-26T03:29:19;93877.53;;;3.69;79.74
10978;BME280;5542;48.272;10.794;2024-02-26T03:31:46;93881.94;;;3.68;79.67
10978;BME280;5542;48.272;10.794;2024-02-26T03:34:12;93874.69;;;3.70;79.82
10978;BME280;5542;48.272;10.794;2024-02-26T03:36:39;93885.69;;;3.72;79.68
10978;BME280;5542;48.272;10.794;2024-02-26T03:39:06;93882.63;;;3.75;79.39
10978;BME280;5542;48.272;10.794;2024-02-26T03:41:33;93881.03;;;3.74;79.34
10978;BME280;5542;48.272;10.794;2024-02-26T03:44:00;93886.00;;;3.76;78.91
10978;BME280;5542;48.272;10.794;2024-02-26T03:46:28;93883.63;;;3.74;78.77
10978;BME280;5542;48.272;10.794;2024-02-26T03:48:55;93878.66;;;3.73;79.07
10978;BME280;5542;48.272;10.794;2024-02-26T03:51:21;93881.81;;;3.75;78.96
10978;BME280;5542;48.272;10.794;2024-02-26T03:53:48;93875.38;;;3.77;78.94
10978;BME280;5542;48.272;10.794;2024-02-26T03:56:14;93875.38;;;3.77;78.66
10978;BME280;5542;48.272;10.794;2024-02-26T03:58:41;93875.38;;;3.77;78.89
10978;BME280;5542;48.272;10.794;2024-02-26T04:01:08;93875.38;;;3.77;78.71
10978;BME280;5542;48.272;10.794;2024-02-26T04:03:36;93873.22;;;3.74;78.79
10978;BME280;5542;48.272;10.794;2024-02-26T04:06:03;93873.22;;;3.74;78.66
10978;BME280;5542;48.272;10.794;2024-02-26T04:08:30;93872.78;;;3.77;77.98
10978;BME280;5542;48.272;10.794;2024-02-26T04:10:56;93873.38;;;3.68;78.23
10978;BME280;5542;48.272;10.794;2024-02-26T04:13:23;93872.81;;;3.66;78.77
10978;BME280;5542;48.272;10.794;2024-02-26T04:15:50;93875.97;;;3.68;78.98
10978;BME280;5542;48.272;10.794;2024-02-26T04:18:16;93881.63;;;3.65;78.40
10978;BME280;5542;48.272;10.794;2024-02-26T04:20:44;93884.47;;;3.63;78.30
10978;BME280;5542;48.272;10.794;2024-02-26T04:23:11;93895.56;;;3.47;79.01
10978;BME280;5542;48.272;10.794;2024-02-26T04:25:38;93899.31;;;3.39;79.24
10978;BME280;5542;48.272;10.794;2024-02-26T04:28:05;93901.00;;;3.33;79.74
10978;BME280;5542;48.272;10.794;2024-02-26T04:30:31;93897.28;;;3.29;80.17
10978;BME280;5542;48.272;10.794;2024-02-26T04:32:58;93897.50;;;3.28;80.63
10978;BME280;5542;48.272;10.794;2024-02-26T04:35:24;93906.53;;;3.37;80.31
10978;BME280;5542;48.272;10.794;2024-02-26T04:37:52;93903.25;;;3.42;80.29
10978;BME280;5542;48.272;10.794;2024-02-26T04:40:19;93902.56;;;3.46;80.37
10978;BME280;5542;48.272;10.794;2024-02-26T04:42:46;93898.28;;;3.52;80.18
10978;BME280;5542;48.272;10.794;2024-02-26T04:45:12;93902.22;;;3.54;80.16
10978;BME280;5542;48.272;10.794;2024-02-26T04:47:39;93892.25;;;3.63;79.77
10978;BME280;5542;48.272;10.794;2024-02-26T04:50:06;93886.59;;;3.66;79.39
10978;BME280;5542;48.272;10.794;2024-02-26T04:52:33;93894.41;;;3.66;79.09
10978;BME280;5542;48.272;10.794;2024-02-26T04:55:01;93912.13;;;3.69;79.12
10978;BME280;5542;48.272;10.794;2024-02-26T04:57:28;93920.72;;;3.70;78.64
10978;BME280;5542;48.272;10.794;2024-02-26T04:59:55;93921.41;;;3.65;78.15
10978;BME280;5542;48.272;10.794;2024-02-26T05:02:22;93932.47;;;3.60;78.14
10978;BME280;5542;48.272;10.794;2024-02-26T05:04:48;93927.75;;;3.57;78.46
10978;BME280;5542;48.272;10.794;2024-02-26T05:07:15;93928.88;;;3.62;78.60
10978;BME280;5542;48.272;10.794;2024-02-26T05:09:42;93932.03;;;3.64;78.55
10978;BME280;5542;48.272;10.794;2024-02-26T05:12:10;93936.22;;;3.65;78.52
10978;BME280;5542;48.272;10.794;2024-02-26T05:14:37;93925.59;;;3.66;78.34
10978;BME280;5542;48.272;10.794;2024-02-26T05:17:04;93922.09;;;3.60;78.30
10978;BME280;5542;48.272;10.794;2024-02-26T05:19:31;93913.16;;;3.68;78.06
10978;BME280;5542;48.272;10.794;2024-02-26T05:21:57;93912.50;;;3.61;78.06
10978;BME280;5542;48.272;10.794;2024-02-26T05:24:24;93908.78;;;3.57;78.36
10978;BME280;5542;48.272;10.794;2024-02-26T05:26:51;93897.22;;;3.65;78.06
10978;BME280;5542;48.272;10.794;2024-02-26T05:29:19;93902.09;;;3.61;77.82
10978;BME280;5542;48.272;10.794;2024-02-26T05:31:45;93909.16;;;3.37;78.44
10978;BME280;5542;48.272;10.794;2024-02-26T05:34:12;93909.25;;;3.30;79.20
10978;BME280;5542;48.272;10.794;2024-02-26T05:36:38;93913.41;;;3.31;78.76
10978;BME280;5542;48.272;10.794;2024-02-26T05:39:05;93911.84;;;3.30;79.81
10978;BME280;5542;48.272;10.794;2024-02-26T05:41:32;93915.44;;;3.41;79.00
10978;BME280;5542;48.272;10.794;2024-02-26T05:43:59;93918.63;;;3.20;80.21
10978;BME280;5542;48.272;10.794;2024-02-26T05:46:26;93922.47;;;3.17;80.56
10978;BME280;5542;48.272;10.794;2024-02-26T05:48:53;93926.41;;;2.96;82.32
10978;BME280;5542;48.272;10.794;2024-02-26T05:51:20;93930.91;;;2.89;82.23
10978;BME280;5542;48.272;10.794;2024-02-26T05:53:46;93931.47;;;2.79;83.42
10978;BME280;5542;48.272;10.794;2024-02-26T05:56:19;93938.56;;;2.72;84.17
10978;BME280;5542;48.272;10.794;2024-02-26T05:58:45;93952.78;;;2.70;84.87
10978;BME280;5542;48.272;10.794;2024-02-26T06:01:12;93962.38;;;2.69;84.95
10978;BME280;5542;48.272;10.794;2024-02-26T06:03:40;93969.50;;;2.74;85.38
10978;BME280;5542;48.272;10.794;2024-02-26T06:06:06;93976.19;;;2.81;85.76
10978;BME280;5542;48.272;10.794;2024-02-26T06:08:33;93968.63;;;2.92;85.44
10978;BME280;5542;48.272;10.794;2024-02-26T06:10:59;93972.59;;;3.06;84.99
10978;BME280;5542;48.272;10.794;2024-02-26T06:13:25;93977.47;;;3.26;83.37
10978;BME280;5542;48.272;10.794;2024-02-26T06:15:52;93984.59;;;3.30;82.18
10978;BME280;5542;48.272;10.794;2024-02-26T06:18:18;93983.81;;;3.18;82.20
10978;BME280;5542;48.272;10.794;2024-02-26T06:20:46;93979.97;;;3.21;82.51
10978;BME280;5542;48.272;10.794;2024-02-26T06:23:13;93977.59;;;3.43;81.02
10978;BME280;5542;48.272;10.794;2024-02-26T06:25:40;93983.47;;;3.38;80.89
10978;BME280;5542;48.272;10.794;2024-02-26T06:28:08;93995.44;;;3.27;81.61
10978;BME280;5542;48.272;10.794;2024-02-26T06:30:34;93986.53;;;3.23;82.16
10978;BME280;5542;48.272;10.794;2024-02-26T06:33:01;93977.91;;;3.11;82.77
10978;BME280;5542;48.272;10.794;2024-02-26T06:35:28;93971.69;;;3.12;83.27
10978;BME280;5542;48.272;10.794;2024-02-26T06:37:56;93971.72;;;3.36;82.28
10978;BME280;5542;48.272;10.794;2024-02-26T06:40:22;93979.50;;;3.36;80.89
10978;BME280;5542;48.272;10.794;2024-02-26T06:42:49;93984.38;;;3.20;81.53
10978;BME280;5542;48.272;10.794;2024-02-26T06:45:16;93993.97;;;3.20;81.57
10978;BME280;5542;48.272;10.794;2024-02-26T06:47:43;93994.41;;;3.05;82.67
10978;BME280;5542;48.272;10.794;2024-02-26T06:50:11;93985.38;;;3.19;82.74
10978;BME280;5542;48.272;10.794;2024-02-26T06:52:38;93989.25;;;3.28;82.77
10978;BME280;5542;48.272;10.794;2024-02-26T06:55:07;93987.63;;;3.16;83.55
10978;BME280;5542;48.272;10.794;2024-02-26T06:57:34;94001.84;;;3.13;84.14
10978;BME280;5542;48.272;10.794;2024-02-26T07:00:00;94016.75;;;3.06;84.90
10978;BME280;5542;48.272;10.794;2024-02-26T07:02:29;94012.91;;;3.08;84.96
10978;BME280;5542;48.272;10.794;2024-02-26T07:04:55;94011.03;;;3.16;85.00
10978;BME280;5542;48.272;10.794;2024-02-26T07:07:23;94024.25;;;3.26;84.54
10978;BME280;5542;48.272;10.794;2024-02-26T07:09:50;94021.22;;;3.29;84.92
10978;BME280;5542;48.272;10.794;2024-02-26T07:12:18;94020.31;;;3.23;85.01
10978;BME280;5542;48.272;10.794;2024-02-26T07:14:46;94015.78;;;3.30;85.25
10978;BME280;5542;48.272;10.794;2024-02-26T07:17:14;94010.59;;;3.30;85.16
10978;BME280;5542;48.272;10.794;2024-02-26T07:19:41;94013.63;;;3.27;85.40
10978;BME280;5542;48.272;10.794;2024-02-26T07:22:08;94015.69;;;3.37;85.14
10978;BME280;5542;48.272;10.794;2024-02-26T07:24:35;94020.31;;;3.47;85.40
10978;BME280;5542;48.272;10.794;2024-02-26T07:27:01;94030.81;;;3.64;84.25
10978;BME280;5542;48.272;10.794;2024-02-26T07:29:30;94016.72;;;3.71;82.30
10978;BME280;5542;48.272;10.794;2024-02-26T07:31:57;94014.44;;;3.63;82.80
10978;BME280;5542;48.272;10.794;2024-02-26T07:34:24;94015.56;;;3.67;83.40
10978;BME280;5542;48.272;10.794;2024-02-26T07:36:54;94016.03;;;3.76;83.74
10978;BME280;5542;48.272;10.794;2024-02-26T07:39:21;94013.16;;;3.89;83.90
10978;BME280;5542;48.272;10.794;2024-02-26T07:41:47;94014.50;;;4.03;83.71
10978;BME280;5542;48.272;10.794;2024-02-26T07:44:16;94017.28;;;4.25;80.86
10978;BME280;5542;48.272;10.794;2024-02-26T07:46:44;94020.34;;;4.22;81.25
10978;BME280;5542;48.272;10.794;2024-02-26T07:49:11;94020.22;;;4.29;81.35
10978;BME280;5542;48.272;10.794;2024-02-26T07:51:38;94016.94;;;4.62;77.67
10978;BME280;5542;48.272;10.794;2024-02-26T07:54:04;94020.84;;;4.48;78.30
10978;BME280;5542;48.272;10.794;2024-02-26T07:56:31;94023.66;;;4.46;78.95
10978;BME280;5542;48.272;10.794;2024-02-26T07:58:58;94025.13;;;4.54;78.39
10978;BME280;5542;48.272;10.794;2024-02-26T08:01:24;94018.16;;;4.71;78.07
10978;BME280;5542;48.272;10.794;2024-02-26T08:03:53;94016.75;;;4.80;78.46
10978;BME280;5542;48.272;10.794;2024-02-26T08:06:19;94015.59;;;4.88;78.00
10978;BME280;5542;48.272;10.794;2024-02-26T08:08:46;94007.22;;;4.86;77.86
10978;BME280;5542;48.272;10.794;2024-02-26T08:11:14;93993.25;;;4.75;78.36
10978;BME280;5542;48.272;10.794;2024-02-26T08:13:41;93988.94;;;4.69;78.65
10978;BME280;5542;48.272;10.794;2024-02-26T08:16:08;93982.13;;;4.80;79.15
10978;BME280;5542;48.272;10.794;2024-02-26T08:18:34;93985.25;;;4.82;78.50
10978;BME280;5542;48.272;10.794;2024-02-26T08:21:03;93999.31;;;4.81;78.91
10978;BME280;5542;48.272;10.794;2024-02-26T08:23:29;94001.22;;;4.85;77.88
10978;BME280;5542;48.272;10.794;2024-02-26T08:25:57;93993.31;;;4.80;78.51
10978;BME280;5542;48.272;10.794;2024-02-26T08:28:23;94002.56;;;4.88;77.78
10978;BME280;5542;48.272;10.794;2024-02-26T08:30:50;94001.84;;;4.76;79.30
10978;BME280;5542;48.272;10.794;2024-02-26T08:33:16;94003.25;;;4.83;76.93
10978;BME280;5542;48.272;10.794;2024-02-26T08:35:43;94000.72;;;4.72;78.15
10978;BME280;5542;48.272;10.794;2024-02-26T08:38:11;94001.13;;;4.80;78.90
10978;BME280;5542;48.272;10.794;2024-02-26T08:40:38;94003.09;;;4.73;78.07
10978;BME280;5542;48.272;10.794;2024-02-26T08:43:05;94015.31;;;4.73;78.64
10978;BME280;5542;48.272;10.794;2024-02-26T08:45:31;94009.31;;;4.72;78.56
10978;BME280;5542;48.272;10.794;2024-02-26T08:47:58;94013.38;;;4.80;78.25
10978;BME280;5542;48.272;10.794;2024-02-26T08:50:24;94010.00;;;4.96;76.11
10978;BME280;5542;48.272;10.794;2024-02-26T08:52:51;94010.94;;;4.90;76.34
10978;BME280;5542;48.272;10.794;2024-02-26T08:55:20;94012.44;;;4.86;76.50
10978;BME280;5542;48.272;10.794;2024-02-26T08:57:47;94014.47;;;4.84;76.29
10978;BME280;5542;48.272;10.794;2024-02-26T09:00:14;94014.78;;;4.87;77.37
10978;BME280;5542;48.272;10.794;2024-02-26T09:02:43;94009.75;;;4.98;76.35
10978;BME280;5542;48.272;10.794;2024-02-26T09:05:10;94002.59;;;5.05;76.84
10978;BME280;5542;48.272;10.794;2024-02-26T09:07:36;94003.00;;;5.13;76.81
10978;BME280;5542;48.272;10.794;2024-02-26T09:10:04;94007.00;;;5.04;77.33
10978;BME280;5542;48.272;10.794;2024-02-26T09:12:32;94007.47;;;5.01;78.57
10978;BME280;5542;48.272;10.794;2024-02-26T09:14:58;94005.28;;;5.10;78.35
10978;BME280;5542;48.272;10.794;2024-02-26T09:17:25;94008.44;;;5.29;76.01
10978;BME280;5542;48.272;10.794;2024-02-26T09:19:52;94009.53;;;5.50;75.23
10978;BME280;5542;48.272;10.794;2024-02-26T09:22:18;94009.06;;;5.53;75.62
10978;BME280;5542;48.272;10.794;2024-02-26T09:24:45;94018.22;;;5.55;75.78
10978;BME280;5542;48.272;10.794;2024-02-26T09:27:11;94016.31;;;5.84;73.60
10978;BME280;5542;48.272;10.794;2024-02-26T09:29:39;94017.97;;;5.90;72.61
10978;BME280;5542;48.272;10.794;2024-02-26T09:32:06;94021.78;;;5.66;74.20
10978;BME280;5542;48.272;10.794;2024-02-26T09:34:33;94011.88;;;5.85;74.33
10978;BME280;5542;48.272;10.794;2024-02-26T09:37:00;94018.44;;;6.04;72.11
10978;BME280;5542;48.272;10.794;2024-02-26T09:39:26;94019.59;;;6.13;73.29
10978;BME280;5542;48.272;10.794;2024-02-26T09:41:53;94016.97;;;6.13;73.02
10978;BME280;5542;48.272;10.794;2024-02-26T09:44:20;94009.53;;;6.22;72.95
10978;BME280;5542;48.272;10.794;2024-02-26T09:46:48;94009.03;;;6.25;72.50
10978;BME280;5542;48.272;10.794;2024-02-26T09:49:16;94012.25;;;6.32;72.78
10978;BME280;5542;48.272;10.794;2024-02-26T09:51:42;94010.53;;;6.43;72.09
10978;BME280;5542;48.272;10.794;2024-02-26T09:54:09;94008.50;;;6.72;71.41
10978;BME280;5542;48.272;10.794;2024-02-26T09:56:37;94013.06;;;6.82;70.80
10978;BME280;5542;48.272;10.794;2024-02-26T09:59:06;94011.72;;;6.79;71.03
10978;BME280;5542;48.272;10.794;2024-02-26T10:01:37;94016.81;;;6.91;71.28
10978;BME280;5542;48.272;10.794;2024-02-26T10:04:08;94016.41;;;7.04;67.63
10978;BME280;5542;48.272;10.794;2024-02-26T10:06:36;94024.06;;;6.84;69.68
10978;BME280;5542;48.272;10.794;2024-02-26T10:09:03;94025.38;;;6.86;70.58
10978;BME280;5542;48.272;10.794;2024-02-26T10:11:32;94021.03;;;6.97;71.13
10978;BME280;5542;48.272;10.794;2024-02-26T10:13:59;94017.09;;;7.22;68.45
10978;BME280;5542;48.272;10.794;2024-02-26T10:16:25;94021.63;;;7.31;65.79
10978;BME280;5542;48.272;10.794;2024-02-26T10:18:53;94019.84;;;7.37;67.38
10978;BME280;5542;48.272;10.794;2024-02-26T10:21:21;94021.66;;;7.36;67.63
10978;BME280;5542;48.272;10.794;2024-02-26T10:23:48;94022.19;;;7.38;67.18
10978;BME280;5542;48.272;10.794;2024-02-26T10:26:15;94023.09;;;7.54;66.44
10978;BME280;5542;48.272;10.794;2024-02-26T10:28:44;94022.06;;;7.55;67.61
10978;BME280;5542;48.272;10.794;2024-02-26T10:31:11;94028.72;;;7.73;66.60
10978;BME280;5542;48.272;10.794;2024-02-26T10:33:38;94032.88;;;7.69;66.02
10978;BME280;5542;48.272;10.794;2024-02-26T10:36:06;94036.19;;;7.96;63.63
10978;BME280;5542;48.272;10.794;2024-02-26T10:38:35;94038.19;;;8.21;60.47
10978;BME280;5542;48.272;10.794;2024-02-26T10:41:02;94042.03;;;8.09;61.22
10978;BME280;5542;48.272;10.794;2024-02-26T10:43:29;94054.00;;;7.94;63.05
10978;BME280;5542;48.272;10.794;2024-02-26T10:45:55;94057.41;;;7.95;64.38
10978;BME280;5542;48.272;10.794;2024-02-26T10:48:22;94048.56;;;8.06;64.39
10978;BME280;5542;48.272;10.794;2024-02-26T10:50:49;94053.69;;;8.33;62.59
10978;BME280;5542;48.272;10.794;2024-02-26T10:53:17;94054.19;;;8.30;63.63
10978;BME280;5542;48.272;10.794;2024-02-26T10:55:49;94056.78;;;8.25;61.12
10978;BME280;5542;48.272;10.794;2024-02-26T10:58:16;94055.78;;;8.31;60.65
10978;BME280;5542;48.272;10.794;2024-02-26T11:00:43;94053.44;;;8.35;61.30
10978;BME280;5542;48.272;10.794;2024-02-26T11:03:11;94057.44;;;8.42;61.65
10978;BME280;5542;48.272;10.794;2024-02-26T11:05:40;94056.91;;;8.40;62.24
10978;BME280;5542;48.272;10.794;2024-02-26T11:08:08;94061.50;;;8.76;60.17
10978;BME280;5542;48.272;10.794;2024-02-26T11:10:36;94053.94;;;8.84;58.79
10978;BME280;5542;48.272;10.794;2024-02-26T11:13:05;94052.31;;;8.73;58.81
10978;BME280;5542;48.272;10.794;2024-02-26T11:15:34;94051.31;;;8.79;57.66
10978;BME280;5542;48.272;10.794;2024-02-26T11:18:02;94050.31;;;9.06;57.33
10978;BME280;5542;48.272;10.794;2024-02-26T11:20:29;94055.03;;;8.98;59.82
10978;BME280;5542;48.272;10.794;2024-02-26T11:22:58;94063.41;;;8.95;57.30
10978;BME280;5542;48.272;10.794;2024-02-26T11:25:24;94058.69;;;8.97;58.33
10978;BME280;5542;48.272;10.794;2024-02-26T11:27:56;94046.88;;;8.90;57.14
10978;BME280;5542;48.272;10.794;2024-02-26T11:30:30;94046.09;;;9.00;58.55
10978;BME280;5542;48.272;10.794;2024-02-26T11:32:58;94041.38;;;9.07;57.94
10978;BME280;5542;48.272;10.794;2024-02-26T11:35:25;94028.31;;;9.12;56.61
10978;BME280;5542;48.272;10.794;2024-02-26T11:37:53;94027.28;;;9.33;56.78
10978;BME280;5542;48.272;10.794;2024-02-26T11:40:22;94033.06;;;9.35;58.49
10978;BME280;5542;48.272;10.794;2024-02-26T11:42:49;94029.09;;;9.68;56.99
10978;BME280;5542;48.272;10.794;2024-02-26T11:45:52;94035.69;;;9.45;56.70
10978;BME280;5542;48.272;10.794;2024-02-26T11:48:23;94037.53;;;9.65;57.73
10978;BME280;5542;48.272;10.794;2024-02-26T11:50:51;94035.69;;;9.76;58.37
10978;BME280;5542;48.272;10.794;2024-02-26T11:53:25;94029.91;;;9.84;57.63
10978;BME280;5542;48.272;10.794;2024-02-26T11:56:20;94018.88;;;9.77;56.81
10978;BME280;5542;48.272;10.794;2024-02-26T11:58:48;94012.06;;;9.76;58.11
10978;BME280;5542;48.272;10.794;2024-02-26T12:01:39;94007.31;;;9.83;57.20
10978;BME280;5542;48.272;10.794;2024-02-26T12:04:07;94004.19;;;9.66;56.60
10978;BME280;5542;48.272;10.794;2024-02-26T12:06:42;94001.53;;;9.86;57.92
10978;BME280;5542;48.272;10.794;2024-02-26T12:09:08;94010.75;;;9.84;56.81
10978;BME280;5542;48.272;10.794;2024-02-26T12:11:37;94011.53;;;9.69;57.73
10978;BME280;5542;48.272;10.794;2024-02-26T12:14:05;94017.03;;;9.78;58.33
10978;BME280;5542;48.272;10.794;2024-02-26T12:16:38;94018.88;;;9.77;58.18
10978;BME280;5542;48.272;10.794;2024-02-26T12:19:06;94027.22;;;10.10;55.44
10978;BME280;5542;48.272;10.794;2024-02-26T12:21:34;94023.28;;;10.28;54.58
10978;BME280;5542;48.272;10.794;2024-02-26T12:24:11;94026.69;;;10.18;53.86
10978;BME280;5542;48.272;10.794;2024-02-26T12:26:39;94048.78;;;10.07;54.76
10978;BME280;5542;48.272;10.794;2024-02-26T12:29:06;94052.69;;;10.24;53.67
10978;BME280;5542;48.272;10.794;2024-02-26T12:31:33;94053.47;;;10.30;51.88
10978;BME280;5542;48.272;10.794;2024-02-26T12:34:04;94055.06;;;10.31;51.74
10978;BME280;5542;48.272;10.794;2024-02-26T12:36:31;94050.84;;;10.15;51.92
10978;BME280;5542;48.272;10.794;2024-02-26T12:38:58;94047.72;;;10.13;51.92
10978;BME280;5542;48.272;10.794;2024-02-26T12:41:26;94048.78;;;10.12;52.45
10978;BME280;5542;48.272;10.794;2024-02-26T12:43:53;94048.78;;;10.07;52.31
10978;BME280;5542;48.272;10.794;2024-02-26T12:46:20;94046.66;;;10.09;53.06
10978;BME280;5542;48.272;10.794;2024-02-26T12:48:47;94052.97;;;10.28;53.30
10978;BME280;5542;48.272;10.794;2024-02-26T12:51:16;94056.59;;;10.42;52.71
10978;BME280;5542;48.272;10.794;2024-02-26T12:53:43;94046.34;;;10.51;52.25
10978;BME280;5542;48.272;10.794;2024-02-26T12:56:11;94057.91;;;10.50;53.13
10978;BME280;5542;48.272;10.794;2024-02-26T12:58:39;94055.53;;;10.59;53.51
10978;BME280;5542;48.272;10.794;2024-02-26T13:01:06;94049.97;;;10.60;52.85
10978;BME280;5542;48.272;10.794;2024-02-26T13:03:34;94053.91;;;10.63;53.11
10978;BME280;5542;48.272;10.794;2024-02-26T13:06:03;94056.31;;;10.59;53.40
10978;BME280;5542;48.272;10.794;2024-02-26T13:08:33;94051.53;;;10.61;53.04
10978;BME280;5542;48.272;10.794;2024-02-26T13:11:00;94053.91;;;10.63;52.63